Time;durP1;ratioP1;P1;durP2;ratioP2;P2;SDS_P1;SDS_P2;PMS_P1;PMS_P2;Temp;Humidity;BMP_temperature;BMP_pressure;BME280_temperature;BME280_humidity;BME280_pressure;Samples;Min_cycle;Max_cycle;Signal;HPM_P1;HPM_P2
2021/08/11 00:00:57;;;;;;;;;;;20.10;99.90;;;;;;5097560;28;19915;-66
2021/08/11 00:03:22;;;;;;;;;;;20.10;99.90;;;;;;5116847;28;20030;-66
2021/08/11 00:05:48;;;;;;;;;;;20.10;99.90;;;;;;5116206;28;19904;-69
2021/08/11 00:08:13;;;;;;;;;;;20.10;99.90;;;;;;5116194;28;19954;-66
2021/08/11 00:10:39;;;;;;;;;;;20.10;99.90;;;;;;5116129;28;19935;-66
2021/08/11 00:13:04;;;;;;;;;;;20.10;99.90;;;;;;5115937;28;20402;-66
2021/08/11 00:15:30;;;;;;;;;;;20.10;99.90;;;;;;5097540;28;19949;-66
2021/08/11 00:17:55;;;;;;;;;;;20.10;99.90;;;;;;5116263;28;19903;-66
2021/08/11 00:20:24;;;;;;;;;;;20.00;99.90;;;;;;5115924;28;19956;-66
2021/08/11 00:22:49;;;;;;;;;;;20.00;99.90;;;;;;5115789;28;19903;-66
2021/08/11 00:25:15;;;;;;;;;;;20.00;99.90;;;;;;5097412;28;20249;-66
2021/08/11 00:27:40;;;;;;;;;;;19.90;99.90;;;;;;5116120;28;19904;-66
2021/08/11 00:30:06;;;;;;;;;;;19.90;99.90;;;;;;5116193;28;19904;-66
2021/08/11 00:32:32;;;;;;;;;;;19.90;99.90;;;;;;5115589;28;19915;-66
2021/08/11 00:34:57;;;;;;;;;;;19.80;99.90;;;;;;5115598;28;19904;-67
2021/08/11 00:37:23;;;;;;;;;;;19.80;99.90;;;;;;5115479;28;19903;-66
2021/08/11 00:39:48;;;;;;;;;;;19.70;99.90;;;;;;5115634;28;19904;-66
2021/08/11 00:42:14;;;;;;;;;;;19.70;99.90;;;;;;5115338;28;19912;-66
2021/08/11 00:44:39;;;;;;;;;;;19.70;99.90;;;;;;5115428;28;19904;-66
2021/08/11 00:47:05;;;;;;;;;;;19.70;99.90;;;;;;5115408;28;19976;-65
2021/08/11 00:49:31;;;;;;;;;;;19.70;99.90;;;;;;5115196;28;19911;-67
2021/08/11 00:51:56;;;;;;;;;;;19.70;99.90;;;;;;5115751;28;19953;-67
2021/08/11 00:54:22;;;;;;;;;;;19.70;99.90;;;;;;5114814;28;20354;-67
2021/08/11 00:56:48;;;;;;;;;;;19.80;99.90;;;;;;5096758;28;19923;-67
2021/08/11 00:59:15;;;;;;;;;;;19.80;99.90;;;;;;5115226;28;20225;-65
2021/08/11 01:01:41;;;;;;;;;;;19.80;99.90;;;;;;5115236;28;19908;-65
2021/08/11 01:04:08;;;;;;;;;;;19.80;99.90;;;;;;5114932;28;19911;-66
2021/08/11 01:06:35;;;;;;;;;;;19.80;99.90;;;;;;5114821;28;19904;-66
2021/08/11 01:09:01;;;;;;;;;;;19.80;99.90;;;;;;5115020;28;20376;-65
2021/08/11 01:11:26;;;;;;;;;;;19.70;99.90;;;;;;5114816;28;19904;-65
2021/08/11 01:13:52;;;;;;;;;;;19.70;99.90;;;;;;5096223;28;19956;-66
2021/08/11 01:16:18;;;;;;;;;;;19.60;99.90;;;;;;5119437;28;19965;-65
2021/08/11 01:18:43;;;;;;;;;;;19.60;99.90;;;;;;5121704;28;19903;-66
2021/08/11 01:21:14;;;;;;;;;;;19.60;99.90;;;;;;5115529;28;19929;-66
2021/08/11 01:23:44;;;;;;;;;;;19.80;99.90;;;;;;5114859;28;20271;-65
2021/08/11 01:26:14;;;;;;;;;;;19.80;99.90;;;;;;5115139;28;19904;-65
2021/08/11 01:28:39;;;;;;;;;;;19.80;99.90;;;;;;5096738;28;19995;-65
2021/08/11 01:31:08;;;;;;;;;;;19.70;99.90;;;;;;5115236;28;19958;-65
2021/08/11 01:33:37;;;;;;;;;;;19.60;99.90;;;;;;5114601;28;19903;-66
2021/08/11 01:36:09;;;;;;;;;;;19.50;99.90;;;;;;5114590;28;19908;-66
2021/08/11 01:38:35;;;;;;;;;;;19.50;99.90;;;;;;5095964;28;19903;-66
2021/08/11 01:41:03;;;;;;;;;;;19.40;99.90;;;;;;5114302;28;19908;-66
2021/08/11 01:43:33;;;;;;;;;;;19.40;99.90;;;;;;5115160;28;19904;-66
2021/08/11 01:45:59;;;;;;;;;;;19.40;99.90;;;;;;5115461;28;19927;-66
2021/08/11 01:48:28;;;;;;;;;;;19.30;99.90;;;;;;5114615;28;19908;-66
2021/08/11 01:50:54;;;;;;;;;;;19.30;99.90;;;;;;5114305;28;20040;-66
2021/08/11 01:53:21;;;;;;;;;;;19.30;99.90;;;;;;5114221;28;19957;-66
2021/08/11 01:55:47;;;;;;;;;;;19.30;99.90;;;;;;5113950;28;20334;-66
2021/08/11 01:58:13;;;;;;;;;;;19.20;99.90;;;;;;5114607;28;19990;-66
2021/08/11 02:00:39;;;;;;;;;;;19.20;99.90;;;;;;5114179;28;20328;-66
2021/08/11 02:03:05;;;;;;;;;;;19.10;99.90;;;;;;5130837;22;19920;-65
2021/08/11 02:05:31;;;;;;;;;;;19.10;99.90;;;;;;5080426;28;20023;-65
2021/08/11 02:08:02;;;;;;;;;;;19.10;99.90;;;;;;5097184;28;19983;-64
2021/08/11 02:10:28;;;;;;;;;;;19.10;99.90;;;;;;5093276;28;19908;-65
2021/08/11 02:12:53;;;;;;;;;;;19.00;99.90;;;;;;5075125;28;19915;-65
2021/08/11 02:15:19;;;;;;;;;;;19.00;99.90;;;;;;5093453;28;19904;-65
2021/08/11 02:17:45;;;;;;;;;;;19.00;99.90;;;;;;5093367;28;19953;-65
2021/08/11 02:20:11;;;;;;;;;;;19.00;99.90;;;;;;5093477;28;19933;-66
2021/08/11 02:22:37;;;;;;;;;;;19.00;99.90;;;;;;5093460;28;19931;-65
2021/08/11 02:25:06;;;;;;;;;;;19.00;99.90;;;;;;5078774;28;20416;-66
2021/08/11 02:27:35;;;;;;;;;;;19.00;99.90;;;;;;5097485;28;20054;-66
2021/08/11 02:30:08;;;;;;;;;;;19.00;99.90;;;;;;5079327;28;19904;-65
2021/08/11 02:32:54;;;;;;;;;;;19.00;99.90;;;;;;5079261;28;20003;-66
2021/08/11 02:35:23;;;;;;;;;;;19.00;99.90;;;;;;5096687;28;20309;-65
2021/08/11 02:38:07;;;;;;;;;;;18.90;99.90;;;;;;5097194;28;19904;-66
2021/08/11 02:40:52;;;;;;;;;;;18.90;99.90;;;;;;5078848;28;19915;-66
2021/08/11 02:43:27;;;;;;;;;;;18.90;99.90;;;;;;5078813;28;20330;-65
2021/08/11 02:45:55;;;;;;;;;;;18.90;99.90;;;;;;5097149;28;19953;-66
2021/08/11 02:48:21;;;;;;;;;;;18.90;99.90;;;;;;5078831;28;19939;-66
2021/08/11 02:50:48;;;;;;;;;;;18.80;99.90;;;;;;5097144;28;20316;-66
2021/08/11 02:53:15;;;;;;;;;;;18.80;99.90;;;;;;5096740;28;19910;-66
2021/08/11 02:55:41;;;;;;;;;;;18.80;99.90;;;;;;5096736;28;20287;-66
2021/08/11 02:58:06;;;;;;;;;;;18.80;99.90;;;;;;5078516;28;19904;-66
2021/08/11 03:00:32;;;;;;;;;;;18.70;99.90;;;;;;5097276;28;19908;-66
2021/08/11 03:02:58;;;;;;;;;;;18.70;99.90;;;;;;5096432;28;19973;-66
2021/08/11 03:05:23;;;;;;;;;;;18.70;99.90;;;;;;5078624;28;19908;-66
2021/08/11 03:07:49;;;;;;;;;;;18.70;99.90;;;;;;5096670;28;19911;-66
2021/08/11 03:10:15;;;;;;;;;;;18.60;99.90;;;;;;5078315;28;20051;-66
2021/08/11 03:12:44;;;;;;;;;;;18.60;99.90;;;;;;5096461;28;19975;-66
2021/08/11 03:15:09;;;;;;;;;;;18.60;99.90;;;;;;5096373;28;19904;-66
2021/08/11 03:17:36;;;;;;;;;;;18.50;99.90;;;;;;5096219;28;20376;-66
2021/08/11 03:20:02;;;;;;;;;;;18.40;99.90;;;;;;5096196;28;20077;-65
2021/08/11 03:22:28;;;;;;;;;;;18.20;99.90;;;;;;5096010;28;19912;-65
2021/08/11 03:24:54;;;;;;;;;;;18.10;99.90;;;;;;5095895;28;19911;-65
2021/08/11 03:27:19;;;;;;;;;;;18.10;99.90;;;;;;5096004;28;20391;-65
2021/08/11 03:29:45;;;;;;;;;;;18.10;99.90;;;;;;5095991;28;19908;-65
2021/08/11 03:32:10;;;;;;;;;;;18.10;99.90;;;;;;5096232;28;19911;-65
2021/08/11 03:34:36;;;;;;;;;;;18.10;99.90;;;;;;5095492;28;19908;-65
2021/08/11 03:37:03;;;;;;;;;;;18.10;99.90;;;;;;5095492;28;20372;-65
2021/08/11 03:39:28;;;;;;;;;;;18.10;99.90;;;;;;5077953;28;19904;-65
2021/08/11 03:41:54;;;;;;;;;;;18.10;99.90;;;;;;5096112;28;19912;-65
2021/08/11 03:44:20;;;;;;;;;;;18.10;99.90;;;;;;5096266;28;19953;-65
2021/08/11 03:46:45;;;;;;;;;;;18.10;99.90;;;;;;5077778;28;19904;-65
2021/08/11 03:49:10;;;;;;;;;;;18.20;99.90;;;;;;5077999;28;20375;-65
2021/08/11 03:51:36;;;;;;;;;;;18.20;99.90;;;;;;5096430;28;19904;-65
2021/08/11 03:54:01;;;;;;;;;;;18.20;99.90;;;;;;5096130;28;19904;-65
2021/08/11 03:56:27;;;;;;;;;;;18.20;99.90;;;;;;5096165;28;19908;-65
2021/08/11 03:58:52;;;;;;;;;;;18.20;99.90;;;;;;5095677;28;19904;-65
2021/08/11 04:01:19;;;;;;;;;;;18.20;99.90;;;;;;5095519;28;19961;-65
2021/08/11 04:03:45;;;;;;;;;;;18.20;99.90;;;;;;5095831;28;19919;-65
2021/08/11 04:06:10;;;;;;;;;;;18.20;99.90;;;;;;5095775;28;19904;-65
2021/08/11 04:08:35;;;;;;;;;;;18.20;99.90;;;;;;5095424;28;19911;-65
2021/08/11 04:11:01;;;;;;;;;;;18.20;99.90;;;;;;5095350;28;19904;-65
2021/08/11 04:13:26;;;;;;;;;;;18.20;99.90;;;;;;5095172;28;19911;-65
2021/08/11 04:15:52;;;;;;;;;;;18.20;99.90;;;;;;5077672;28;20411;-65
2021/08/11 04:18:18;;;;;;;;;;;18.20;99.90;;;;;;5095772;28;19908;-65
2021/08/11 04:20:44;;;;;;;;;;;18.30;99.90;;;;;;5076997;28;20261;-65
2021/08/11 04:23:10;;;;;;;;;;;18.50;99.90;;;;;;5076948;28;20026;-64
2021/08/11 04:25:41;;;;;;;;;;;18.60;99.90;;;;;;5094866;28;19942;-66
2021/08/11 04:28:08;;;;;;;;;;;18.50;99.90;;;;;;5095113;28;19904;-65
2021/08/11 04:30:34;;;;;;;;;;;18.40;99.90;;;;;;5095050;28;19904;-65
2021/08/11 04:32:59;;;;;;;;;;;18.30;99.90;;;;;;5077001;28;19910;-65
2021/08/11 04:35:25;;;;;;;;;;;18.30;99.90;;;;;;5095009;28;19908;-65
2021/08/11 04:37:50;;;;;;;;;;;18.30;99.90;;;;;;5095071;28;19904;-66
2021/08/11 04:40:16;;;;;;;;;;;18.30;99.90;;;;;;5076527;28;19910;-66
2021/08/11 04:42:41;;;;;;;;;;;18.30;99.90;;;;;;5094548;28;20357;-66
2021/08/11 04:45:07;;;;;;;;;;;18.30;99.90;;;;;;5076285;28;19904;-66
2021/08/11 04:47:33;;;;;;;;;;;18.30;99.90;;;;;;5075253;28;19908;-65
2021/08/11 04:49:58;;;;;;;;;;;18.20;99.90;;;;;;5094395;28;19904;-66
2021/08/11 04:52:24;;;;;;;;;;;18.20;99.90;;;;;;5094434;28;19947;-66
2021/08/11 04:54:49;;;;;;;;;;;18.20;99.90;;;;;;5094285;28;20464;-66
2021/08/11 04:57:15;;;;;;;;;;;18.20;99.90;;;;;;5094537;28;19911;-66
2021/08/11 04:59:40;;;;;;;;;;;18.20;99.90;;;;;;5094360;28;19910;-66
2021/08/11 05:02:06;;;;;;;;;;;18.30;99.90;;;;;;5094326;28;20336;-66
2021/08/11 05:04:32;;;;;;;;;;;18.30;99.90;;;;;;5075707;28;19916;-66
2021/08/11 05:06:57;;;;;;;;;;;18.30;99.90;;;;;;5094204;28;19908;-66
2021/08/11 05:09:23;;;;;;;;;;;18.40;99.90;;;;;;5094220;28;20277;-66
2021/08/11 05:11:48;;;;;;;;;;;18.40;99.90;;;;;;5094590;28;19904;-66
2021/08/11 05:14:14;;;;;;;;;;;18.50;99.90;;;;;;5094505;28;19908;-66
2021/08/11 05:16:39;;;;;;;;;;;18.50;99.90;;;;;;5095372;28;19939;-66
2021/08/11 05:19:05;;;;;;;;;;;18.60;99.90;;;;;;5094874;28;19904;-66
2021/08/11 05:21:32;;;;;;;;;;;18.70;99.90;;;;;;5094385;28;19919;-66
2021/08/11 05:23:57;;;;;;;;;;;18.80;99.90;;;;;;5075678;28;19964;-66
2021/08/11 05:26:23;;;;;;;;;;;18.80;99.90;;;;;;5094179;28;20003;-66
2021/08/11 05:28:48;;;;;;;;;;;18.80;99.90;;;;;;5075852;28;19904;-67
2021/08/11 05:31:14;;;;;;;;;;;18.80;99.90;;;;;;5093824;28;19908;-66
2021/08/11 05:33:40;;;;;;;;;;;18.80;99.90;;;;;;5093663;28;19911;-65
2021/08/11 05:36:06;;;;;;;;;;;18.80;99.90;;;;;;5093894;28;19904;-65
2021/08/11 05:38:32;;;;;;;;;;;18.80;99.90;;;;;;5075529;28;20300;-65
2021/08/11 05:40:59;;;;;;;;;;;18.90;99.90;;;;;;5075346;28;19961;-65
2021/08/11 05:43:25;;;;;;;;;;;18.90;99.90;;;;;;5093573;28;19935;-65
2021/08/11 05:45:50;;;;;;;;;;;19.00;99.90;;;;;;5075791;28;19904;-65
2021/08/11 05:48:16;;;;;;;;;;;19.10;99.90;;;;;;5075483;28;20010;-65
2021/08/11 05:50:41;;;;;;;;;;;19.10;99.90;;;;;;5093665;28;19951;-65
2021/08/11 05:53:07;;;;;;;;;;;19.10;99.90;;;;;;5075322;28;19908;-65
2021/08/11 05:55:32;;;;;;;;;;;19.10;99.90;;;;;;5093614;28;20348;-66
2021/08/11 05:57:58;;;;;;;;;;;19.20;99.90;;;;;;5093204;28;19915;-66
2021/08/11 06:00:23;;;;;;;;;;;19.20;99.90;;;;;;5093321;28;19904;-66
2021/08/11 06:02:49;;;;;;;;;;;19.20;99.90;;;;;;5074902;28;19915;-66
2021/08/11 06:05:14;;;;;;;;;;;19.20;99.90;;;;;;5075255;28;19908;-66
2021/08/11 06:07:40;;;;;;;;;;;19.20;99.90;;;;;;5093254;28;19904;-66
2021/08/11 06:10:06;;;;;;;;;;;19.30;99.90;;;;;;5093474;28;19986;-66
2021/08/11 06:12:32;;;;;;;;;;;19.30;99.90;;;;;;5093724;28;19912;-66
2021/08/11 06:14:57;;;;;;;;;;;19.30;99.90;;;;;;5093345;28;19908;-66
2021/08/11 06:17:23;;;;;;;;;;;19.30;99.90;;;;;;5093469;28;20364;-66
2021/08/11 06:19:49;;;;;;;;;;;19.40;99.90;;;;;;5093304;28;19954;-66
2021/08/11 06:22:15;;;;;;;;;;;19.40;99.90;;;;;;5074806;28;19955;-65
2021/08/11 06:24:40;;;;;;;;;;;19.50;99.90;;;;;;5093059;28;20376;-66
2021/08/11 06:27:06;;;;;;;;;;;19.60;99.90;;;;;;5093094;28;19904;-66
2021/08/11 06:29:31;;;;;;;;;;;19.60;99.90;;;;;;5092955;28;19951;-66
2021/08/11 06:31:57;;;;;;;;;;;19.70;99.90;;;;;;5093164;28;20393;-64
2021/08/11 06:34:24;;;;;;;;;;;19.70;99.90;;;;;;5074714;28;19904;-65
2021/08/11 06:36:53;;;;;;;;;;;19.80;99.90;;;;;;5093487;28;19954;-66
2021/08/11 06:39:19;;;;;;;;;;;19.90;99.90;;;;;;5075054;28;19904;-66
2021/08/11 06:41:44;;;;;;;;;;;19.90;99.90;;;;;;5092951;28;20279;-65
2021/08/11 06:44:10;;;;;;;;;;;19.90;99.90;;;;;;5092858;28;19958;-66
2021/08/11 06:46:35;;;;;;;;;;;20.20;99.90;;;;;;5092859;28;19971;-66
2021/08/11 06:49:01;;;;;;;;;;;20.10;99.90;;;;;;5093190;28;19947;-66
2021/08/11 06:51:26;;;;;;;;;;;20.10;99.90;;;;;;5092990;28;19910;-67
2021/08/11 06:53:52;;;;;;;;;;;20.10;99.90;;;;;;5092766;28;19946;-66
2021/08/11 06:56:18;;;;;;;;;;;20.10;99.90;;;;;;5092815;28;20297;-65
2021/08/11 06:58:43;;;;;;;;;;;20.10;99.90;;;;;;5092762;28;20003;-66
2021/08/11 07:01:09;;;;;;;;;;;20.20;99.90;;;;;;5092632;28;19908;-65
2021/08/11 07:03:34;;;;;;;;;;;20.30;99.90;;;;;;5074268;28;19918;-65
2021/08/11 07:06:00;;;;;;;;;;;20.30;99.90;;;;;;5092967;28;19946;-66
2021/08/11 07:08:26;;;;;;;;;;;20.40;99.90;;;;;;5093125;28;20000;-66
2021/08/11 07:10:51;;;;;;;;;;;20.50;99.90;;;;;;5094868;28;19939;-66
2021/08/11 07:13:17;;;;;;;;;;;20.60;99.90;;;;;;5096844;28;20431;-65
2021/08/11 07:15:42;;;;;;;;;;;20.70;99.90;;;;;;5078158;28;19908;-65
2021/08/11 07:18:08;;;;;;;;;;;20.70;99.90;;;;;;5096407;28;19962;-65
2021/08/11 07:20:34;;;;;;;;;;;20.80;99.90;;;;;;5096379;28;19908;-67
2021/08/11 07:22:59;;;;;;;;;;;20.90;99.90;;;;;;5096340;28;19915;-65
2021/08/11 07:25:26;;;;;;;;;;;21.00;99.90;;;;;;5096309;28;19904;-66
2021/08/11 07:27:52;;;;;;;;;;;21.10;99.90;;;;;;5096288;28;19904;-65
2021/08/11 07:30:17;;;;;;;;;;;21.10;99.90;;;;;;5096133;28;19998;-65
2021/08/11 07:32:43;;;;;;;;;;;21.20;99.90;;;;;;5095729;28;19957;-65
2021/08/11 07:35:09;;;;;;;;;;;21.20;99.90;;;;;;5095943;28;19904;-65
2021/08/11 07:37:44;;;;;;;;;;;21.30;99.90;;;;;;5077930;28;19911;-66
2021/08/11 07:40:12;;;;;;;;;;;21.40;99.90;;;;;;5095861;28;19911;-66
2021/08/11 07:42:38;;;;;;;;;;;21.50;99.90;;;;;;5095981;28;20275;-65
2021/08/11 07:45:04;;;;;;;;;;;21.60;99.90;;;;;;5095871;28;19933;-66
2021/08/11 07:47:29;;;;;;;;;;;21.70;99.90;;;;;;5095772;28;19904;-66
2021/08/11 07:49:55;;;;;;;;;;;21.80;99.90;;;;;;5095599;28;20268;-66
2021/08/11 07:52:20;;;;;;;;;;;21.90;99.90;;;;;;5095863;28;19976;-66
2021/08/11 07:54:49;;;;;;;;;;;22.00;99.90;;;;;;5095347;28;19904;-66
2021/08/11 07:57:14;;;;;;;;;;;22.10;99.90;;;;;;5077372;28;19920;-66
2021/08/11 07:59:40;;;;;;;;;;;22.30;99.90;;;;;;5095743;28;19913;-65
2021/08/11 08:02:10;;;;;;;;;;;22.40;99.90;;;;;;5095535;28;19908;-65
2021/08/11 08:04:35;;;;;;;;;;;22.60;99.90;;;;;;5096362;28;19916;-65
2021/08/11 08:07:01;;;;;;;;;;;22.90;99.90;;;;;;5077550;28;19927;-66
2021/08/11 08:09:26;;;;;;;;;;;23.10;99.90;;;;;;5095391;28;19904;-66
2021/08/11 08:11:52;;;;;;;;;;;23.30;99.90;;;;;;5095094;28;19908;-64
2021/08/11 08:14:17;;;;;;;;;;;23.30;99.90;;;;;;5095487;28;19973;-65
2021/08/11 08:16:43;;;;;;;;;;;23.30;99.90;;;;;;5095333;28;19954;-65
2021/08/11 08:19:09;;;;;;;;;;;23.40;99.90;;;;;;5095489;28;19963;-65
2021/08/11 08:21:35;;;;;;;;;;;23.50;99.90;;;;;;5076489;28;19949;-65
2021/08/11 08:24:00;;;;;;;;;;;23.70;99.90;;;;;;5095153;28;19908;-64
2021/08/11 08:26:26;;;;;;;;;;;24.00;99.90;;;;;;5095076;28;19904;-64
2021/08/11 08:28:51;;;;;;;;;;;24.30;99.90;;;;;;5095041;28;20284;-63
2021/08/11 08:31:17;;;;;;;;;;;25.40;99.90;;;;;;5094972;28;20000;-64
2021/08/11 08:33:45;;;;;;;;;;;27.50;99.00;;;;;;5095078;28;19926;-62
2021/08/11 08:36:11;;;;;;;;;;;29.80;95.30;;;;;;5094856;28;19972;-64
2021/08/11 08:38:36;;;;;;;;;;;31.20;92.20;;;;;;5094618;28;19984;-64
2021/08/11 08:41:02;;;;;;;;;;;31.70;90.70;;;;;;5095067;28;19995;-67
2021/08/11 08:43:28;;;;;;;;;;;32.50;88.70;;;;;;5094625;28;19934;-65
2021/08/11 08:45:53;;;;;;;;;;;33.50;84.00;;;;;;5094710;28;20245;-66
2021/08/11 08:48:19;;;;;;;;;;;33.70;82.70;;;;;;5094949;28;19904;-66
2021/08/11 08:50:47;;;;;;;;;;;34.00;79.90;;;;;;5094398;28;20000;-66
2021/08/11 08:53:13;;;;;;;;;;;34.60;78.40;;;;;;5094423;28;20304;-66
2021/08/11 08:55:40;;;;;;;;;;;34.20;77.90;;;;;;5094318;28;19904;-66
2021/08/11 08:58:06;;;;;;;;;;;34.90;76.80;;;;;;5094651;28;20321;-66
2021/08/11 09:00:32;;;;;;;;;;;35.60;74.90;;;;;;5094555;28;19943;-65
2021/08/11 09:02:57;;;;;;;;;;;36.30;72.90;;;;;;5094236;28;19904;-64
2021/08/11 09:05:23;;;;;;;;;;;37.00;71.00;;;;;;5094553;28;19910;-65
2021/08/11 09:07:49;;;;;;;;;;;37.80;69.10;;;;;;5094398;28;19904;-65
2021/08/11 09:10:16;;;;;;;;;;;39.20;66.20;;;;;;5094081;28;19961;-63
2021/08/11 09:12:45;;;;;;;;;;;39.90;62.60;;;;;;5094221;28;19904;-65
2021/08/11 09:15:29;;;;;;;;;;;39.80;61.90;;;;;;5093902;28;19904;-65
2021/08/11 09:17:55;;;;;;;;;;;38.90;61.50;;;;;;5093970;28;19904;-65
2021/08/11 09:20:22;;;;;;;;;;;38.50;61.90;;;;;;5076568;28;19998;-65
2021/08/11 09:22:49;;;;;;;;;;;38.70;60.80;;;;;;5093940;28;19908;-65
2021/08/11 09:25:14;;;;;;;;;;;37.10;62.30;;;;;;5094052;28;19908;-65
2021/08/11 09:27:43;;;;;;;;;;;36.40;63.80;;;;;;5093833;28;19927;-66
2021/08/11 09:30:09;;;;;;;;;;;36.70;63.50;;;;;;5094067;28;19908;-65
2021/08/11 09:32:51;;;;;;;;;;;37.80;63.00;;;;;;5075636;28;19997;-65
2021/08/11 09:35:17;;;;;;;;;;;38.70;60.40;;;;;;5093728;28;20284;-65
2021/08/11 09:37:44;;;;;;;;;;;39.90;58.80;;;;;;5093728;28;19904;-63
2021/08/11 09:40:14;;;;;;;;;;;40.80;57.60;;;;;;5093631;28;19957;-64
2021/08/11 09:42:41;;;;;;;;;;;40.10;56.80;;;;;;5093523;28;19908;-65
2021/08/11 09:45:10;;;;;;;;;;;41.10;56.20;;;;;;5075465;28;20348;-64
2021/08/11 09:47:36;;;;;;;;;;;41.90;54.60;;;;;;5093995;28;19973;-64
2021/08/11 09:50:06;;;;;;;;;;;42.70;53.40;;;;;;5093593;28;20315;-65
2021/08/11 09:52:51;;;;;;;;;;;43.30;52.10;;;;;;5093312;28;20272;-65
2021/08/11 09:55:16;;;;;;;;;;;43.40;51.30;;;;;;5075011;28;20326;-63
2021/08/11 09:57:43;;;;;;;;;;;43.90;50.90;;;;;;5093785;28;19904;-64
2021/08/11 10:00:13;;;;;;;;;;;42.90;50.70;;;;;;5093634;28;20348;-64
2021/08/11 10:02:39;;;;;;;;;;;42.40;51.40;;;;;;5093794;28;19915;-65
2021/08/11 10:05:05;;;;;;;;;;;41.80;51.60;;;;;;5094093;28;19908;-65
2021/08/11 10:07:30;;;;;;;;;;;41.10;52.10;;;;;;5093373;28;20403;-65
2021/08/11 10:10:03;;;;;;;;;;;40.40;52.90;;;;;;5093423;28;19904;-65
2021/08/11 10:12:31;;;;;;;;;;;41.00;52.10;;;;;;5093115;28;19966;-65
2021/08/11 10:15:00;;;;;;;;;;;40.50;51.80;;;;;;5093386;28;19962;-65
2021/08/11 10:17:30;;;;;;;;;;;39.70;52.50;;;;;;5093396;28;19904;-68
2021/08/11 10:19:57;;;;;;;;;;;39.40;53.30;;;;;;5093260;28;19988;-67
2021/08/11 10:22:22;;;;;;;;;;;38.50;54.10;;;;;;5093154;28;20430;-67
2021/08/11 10:24:51;;;;;;;;;;;37.50;54.80;;;;;;5092982;28;19908;-67
2021/08/11 10:27:18;;;;;;;;;;;37.30;55.60;;;;;;5074660;28;19990;-67
2021/08/11 10:29:44;;;;;;;;;;;37.00;56.30;;;;;;5075464;28;19914;-67
2021/08/11 10:32:10;;;;;;;;;;;36.80;56.10;;;;;;5093355;28;19915;-67
2021/08/11 10:34:35;;;;;;;;;;;36.80;56.40;;;;;;5092925;28;19912;-67
2021/08/11 10:37:01;;;;;;;;;;;37.50;56.00;;;;;;5092964;28;19930;-67
2021/08/11 10:39:28;;;;;;;;;;;38.30;54.90;;;;;;5075156;28;20352;-67
2021/08/11 10:41:59;;;;;;;;;;;39.30;53.70;;;;;;5092879;28;19950;-68
2021/08/11 10:44:25;;;;;;;;;;;39.80;52.60;;;;;;5092856;28;20283;-67
2021/08/11 10:46:55;;;;;;;;;;;39.90;52.20;;;;;;5096241;28;19904;-67
2021/08/11 10:49:21;;;;;;;;;;;39.90;52.10;;;;;;5096628;28;19911;-67
2021/08/11 10:51:48;;;;;;;;;;;39.30;53.10;;;;;;5078368;28;19995;-67
2021/08/11 10:54:13;;;;;;;;;;;39.90;52.30;;;;;;5096615;28;20370;-67
2021/08/11 10:56:46;;;;;;;;;;;40.90;51.90;;;;;;5096859;28;19952;-66
2021/08/11 10:59:28;;;;;;;;;;;41.20;51.30;;;;;;5096751;28;19908;-66
2021/08/11 11:01:57;;;;;;;;;;;41.60;51.10;;;;;;5096726;28;19934;-66
2021/08/11 11:04:41;;;;;;;;;;;41.90;50.80;;;;;;5096431;28;20334;-66
2021/08/11 11:07:10;;;;;;;;;;;41.20;50.90;;;;;;5096373;28;19910;-67
2021/08/11 11:09:36;;;;;;;;;;;40.80;51.00;;;;;;5096864;28;19904;-66
2021/08/11 11:12:16;;;;;;;;;;;40.30;51.70;;;;;;5096139;28;20057;-66
2021/08/11 11:14:45;;;;;;;;;;;39.00;52.00;;;;;;5077888;28;19931;-68
2021/08/11 11:17:11;;;;;;;;;;;37.10;54.40;;;;;;5077344;28;19926;-66
2021/08/11 11:19:55;;;;;;;;;;;35.80;56.10;;;;;;5095987;28;19971;-66
2021/08/11 11:22:37;;;;;;;;;;;34.50;58.40;;;;;;5077717;28;19908;-66
2021/08/11 11:25:03;;;;;;;;;;;33.40;60.20;;;;;;5077773;28;19951;-66
2021/08/11 11:27:38;;;;;;;;;;;32.90;61.00;;;;;;5096117;28;19908;-66
2021/08/11 11:30:07;;;;;;;;;;;32.30;62.30;;;;;;5096239;28;19923;-66
2021/08/11 11:32:34;;;;;;;;;;;32.00;63.60;;;;;;5076928;28;19912;-65
2021/08/11 11:35:19;;;;;;;;;;;31.60;63.80;;;;;;5095387;28;19904;-66
2021/08/11 11:37:45;;;;;;;;;;;31.00;65.10;;;;;;5095806;28;19904;-65
2021/08/11 11:40:12;;;;;;;;;;;30.60;66.30;;;;;;5095670;28;19927;-65
2021/08/11 11:42:38;;;;;;;;;;;30.10;66.80;;;;;;5095533;28;20229;-65
2021/08/11 11:45:08;;;;;;;;;;;29.80;68.20;;;;;;5095586;28;20061;-65
2021/08/11 11:47:40;;;;;;;;;;;29.70;68.00;;;;;;5077443;28;19937;-66
2021/08/11 11:50:18;;;;;;;;;;;29.60;68.30;;;;;;5095737;28;19987;-66
2021/08/11 11:52:54;;;;;;;;;;;29.60;69.10;;;;;;5095641;28;19908;-65
2021/08/11 11:55:26;;;;;;;;;;;29.50;68.90;;;;;;5095572;28;19949;-66
2021/08/11 11:57:53;;;;;;;;;;;29.10;69.70;;;;;;5095527;28;19915;-66
2021/08/11 12:00:19;;;;;;;;;;;28.90;69.70;;;;;;5095881;28;19908;-66
2021/08/11 12:02:48;;;;;;;;;;;28.80;70.50;;;;;;5096098;28;20420;-64
2021/08/11 12:05:14;;;;;;;;;;;28.80;71.60;;;;;;5095686;28;19903;-64
2021/08/11 12:07:39;;;;;;;;;;;28.80;71.10;;;;;;5095524;28;20332;-64
2021/08/11 12:10:05;;;;;;;;;;;28.90;69.50;;;;;;5095613;28;19930;-64
2021/08/11 12:12:31;;;;;;;;;;;29.00;69.60;;;;;;5095099;28;19951;-64
2021/08/11 12:15:15;;;;;;;;;;;28.90;69.40;;;;;;5095235;28;19954;-64
2021/08/11 12:17:42;;;;;;;;;;;28.90;67.90;;;;;;5095421;28;19943;-64
2021/08/11 12:20:24;;;;;;;;;;;28.80;67.20;;;;;;5095321;28;20367;-64
2021/08/11 12:22:49;;;;;;;;;;;28.80;66.80;;;;;;5095475;28;19930;-64
2021/08/11 12:25:21;;;;;;;;;;;28.70;68.80;;;;;;5095395;28;19908;-63
2021/08/11 12:28:06;;;;;;;;;;;28.70;69.50;;;;;;5095062;28;19904;-64
2021/08/11 12:30:32;;;;;;;;;;;28.70;69.10;;;;;;5094804;28;20276;-64
2021/08/11 12:32:58;;;;;;;;;;;28.60;65.80;;;;;;5076708;28;19904;-64
2021/08/11 12:35:23;;;;;;;;;;;28.60;67.20;;;;;;5094747;28;19904;-65
2021/08/11 12:37:49;;;;;;;;;;;28.60;67.20;;;;;;5094799;28;19957;-64
2021/08/11 12:40:31;;;;;;;;;;;28.50;67.90;;;;;;5095486;28;19912;-64
2021/08/11 12:42:58;;;;;;;;;;;28.50;68.20;;;;;;5095058;28;19955;-65
2021/08/11 12:45:24;;;;;;;;;;;28.40;69.10;;;;;;5094835;28;19904;-64
2021/08/11 12:47:49;;;;;;;;;;;28.40;69.10;;;;;;5094569;28;20053;-65
2021/08/11 12:50:16;;;;;;;;;;;28.50;69.30;;;;;;5094361;28;19998;-66
2021/08/11 12:52:51;;;;;;;;;;;28.60;69.00;;;;;;5094115;28;19974;-65
2021/08/11 12:55:29;;;;;;;;;;;28.70;67.60;;;;;;5094878;28;19958;-65
2021/08/11 12:57:54;;;;;;;;;;;28.80;66.60;;;;;;5094744;28;19904;-65
2021/08/11 13:00:37;;;;;;;;;;;28.80;67.30;;;;;;5094166;28;19920;-65
2021/08/11 13:03:03;;;;;;;;;;;28.80;68.00;;;;;;5095357;28;19941;-67
2021/08/11 13:05:28;;;;;;;;;;;28.80;68.00;;;;;;5076007;28;20307;-67
2021/08/11 13:07:54;;;;;;;;;;;28.80;67.60;;;;;;5093265;28;19950;-67
2021/08/11 13:10:21;;;;;;;;;;;28.90;66.20;;;;;;5094167;28;19942;-67
2021/08/11 13:12:46;;;;;;;;;;;28.90;66.00;;;;;;5093999;28;19908;-66
2021/08/11 13:15:30;;;;;;;;;;;28.80;66.20;;;;;;5093871;28;19998;-67
2021/08/11 13:17:58;;;;;;;;;;;28.70;66.80;;;;;;5093938;28;20383;-69
2021/08/11 13:20:27;;;;;;;;;;;28.80;66.30;;;;;;5093822;28;19904;-67
2021/08/11 13:22:59;;;;;;;;;;;28.80;65.80;;;;;;5093669;28;19904;-68
2021/08/11 13:25:25;;;;;;;;;;;28.80;66.30;;;;;;5094080;28;19904;-67
2021/08/11 13:27:53;;;;;;;;;;;28.90;66.40;;;;;;5093878;28;20387;-68
2021/08/11 13:30:19;;;;;;;;;;;29.00;66.40;;;;;;5093771;28;19908;-68
2021/08/11 13:32:45;;;;;;;;;;;28.90;66.90;;;;;;5093476;28;19915;-68
2021/08/11 13:35:11;;;;;;;;;;;28.80;66.70;;;;;;5093553;28;19904;-68
2021/08/11 13:37:37;;;;;;;;;;;28.80;65.40;;;;;;5074974;28;20063;-68
2021/08/11 13:40:03;;;;;;;;;;;28.90;66.10;;;;;;5093149;28;20403;-68
2021/08/11 13:42:29;;;;;;;;;;;29.00;66.90;;;;;;5093250;28;19915;-68
2021/08/11 13:44:55;;;;;;;;;;;29.00;67.40;;;;;;5093598;28;19904;-68
2021/08/11 13:47:21;;;;;;;;;;;29.00;68.10;;;;;;5093492;28;19927;-68
2021/08/11 13:49:48;;;;;;;;;;;29.00;67.70;;;;;;5093728;28;19904;-68
2021/08/11 13:52:13;;;;;;;;;;;29.00;67.60;;;;;;5093552;28;19918;-68
2021/08/11 13:54:39;;;;;;;;;;;29.10;66.20;;;;;;5075161;28;19971;-66
2021/08/11 13:57:04;;;;;;;;;;;29.10;66.40;;;;;;5093686;28;19904;-66
2021/08/11 13:59:30;;;;;;;;;;;29.20;65.10;;;;;;5093428;28;19904;-67
2021/08/11 14:01:55;;;;;;;;;;;29.20;65.50;;;;;;5093372;28;19949;-68
2021/08/11 14:04:21;;;;;;;;;;;29.20;65.70;;;;;;5093929;28;19916;-66
2021/08/11 14:06:47;;;;;;;;;;;29.20;66.20;;;;;;5093407;28;19904;-65
2021/08/11 14:09:12;;;;;;;;;;;29.30;66.00;;;;;;5093282;28;19904;-65
2021/08/11 14:11:38;;;;;;;;;;;29.30;65.20;;;;;;5074469;28;19912;-66
2021/08/11 14:14:04;;;;;;;;;;;29.40;64.80;;;;;;5093000;28;19904;-65
2021/08/11 14:16:30;;;;;;;;;;;29.50;64.90;;;;;;5092902;28;20284;-66